Time;durP1;ratioP1;P1;durP2;ratioP2;P2;SDS_P1;SDS_P2;PMS_P1;PMS_P2;Temp;Humidity;BMP_temperature;BMP_pressure;BME280_temperature;BME280_humidity;BME280_pressure;Samples;Min_cycle;Max_cycle;Signal;HPM_P1;HPM_P2
2022/10/18 00:01:04;;;;;;;23.35;15.40;;;16.00;99.90;;;;;;5071834;28;20224;-74
2022/10/18 00:03:53;;;;;;;21.15;15.63;;;15.90;99.90;;;;;;5053954;28;20239;-74
2022/10/18 00:06:42;;;;;;;23.75;16.67;;;16.00;99.90;;;;;;5065979;28;20242;-75
2022/10/18 00:09:31;;;;;;;30.27;15.65;;;15.90;99.90;;;;;;5054404;28;20721;-74
2022/10/18 00:12:20;;;;;;;23.15;15.40;;;15.90;99.90;;;;;;5081071;28;20714;-73
2022/10/18 00:15:11;;;;;;;20.15;14.60;;;15.90;99.90;;;;;;5074867;28;20227;-76
2022/10/18 00:18:00;;;;;;;24.83;15.15;;;15.90;99.90;;;;;;5059056;28;20215;-74
2022/10/18 00:20:57;;;;;;;22.80;14.43;;;15.90;99.90;;;;;;5072704;28;20234;-75
2022/10/18 00:23:51;;;;;;;21.05;13.70;;;15.90;99.90;;;;;;5074418;28;20223;-76
2022/10/18 00:26:40;;;;;;;20.35;13.50;;;15.90;99.90;;;;;;5061891;28;20219;-75
2022/10/18 00:29:29;;;;;;;18.65;12.65;;;15.90;99.90;;;;;;5055590;28;20266;-75
2022/10/18 00:32:19;;;;;;;20.80;13.90;;;16.00;99.90;;;;;;5064619;28;20250;-75
2022/10/18 00:35:09;;;;;;;19.88;12.77;;;16.00;99.90;;;;;;5068242;28;20220;-75
2022/10/18 00:37:57;;;;;;;17.73;12.48;;;16.00;99.90;;;;;;5071448;28;20702;-74
2022/10/18 00:40:46;;;;;;;19.50;12.85;;;15.90;99.90;;;;;;5068044;28;20216;-74
2022/10/18 00:43:54;;;;;;;21.63;12.85;;;15.90;99.90;;;;;;5074070;28;20224;-75
2022/10/18 00:46:45;;;;;;;15.68;11.55;;;15.90;99.90;;;;;;5039629;28;20231;-75
2022/10/18 00:49:37;;;;;;;15.27;11.23;;;15.90;99.90;;;;;;5050252;28;20346;-76
2022/10/18 00:52:30;;;;;;;16.08;11.80;;;15.90;99.90;;;;;;5056718;28;20224;-76
2022/10/18 00:55:20;;;;;;;16.33;11.38;;;15.90;99.90;;;;;;5052598;28;21505;-76
2022/10/18 00:58:09;;;;;;;16.58;11.00;;;15.90;99.90;;;;;;5052590;28;20237;-76
2022/10/18 01:00:58;;;;;;;13.35;10.48;;;15.90;99.90;;;;;;5036777;28;20235;-73
2022/10/18 01:03:47;;;;;;;15.85;10.02;;;15.90;99.90;;;;;;5054833;28;20212;-75
2022/10/18 01:06:44;;;;;;;13.68;10.30;;;15.90;99.90;;;;;;5039387;28;20718;-74
2022/10/18 01:09:39;;;;;;;14.13;10.40;;;15.90;99.90;;;;;;5053690;28;20260;-75
2022/10/18 01:12:39;;;;;;;14.75;10.50;;;15.90;99.90;;;;;;5049628;28;20263;-73
2022/10/18 01:15:31;;;;;;;15.48;9.98;;;15.90;99.90;;;;;;5059536;28;20229;-75
2022/10/18 01:18:25;;;;;;;13.68;9.25;;;15.90;99.90;;;;;;5045841;28;20216;-74
2022/10/18 01:21:26;;;;;;;16.98;10.00;;;15.90;99.90;;;;;;5050779;28;20701;-75
2022/10/18 01:24:45;;;;;;;14.75;9.93;;;15.90;99.90;;;;;;5046338;28;21001;-74
2022/10/18 01:27:44;;;;;;;13.63;9.07;;;15.90;99.90;;;;;;5041661;28;20215;-74
2022/10/18 01:30:45;;;;;;;15.45;9.52;;;15.90;99.90;;;;;;5039072;28;20731;-74
2022/10/18 01:33:39;;;;;;;16.30;9.80;;;15.80;99.90;;;;;;5047573;28;20227;-75
2022/10/18 01:36:32;;;;;;;14.98;9.60;;;15.80;99.90;;;;;;5038997;28;20224;-74
2022/10/18 01:39:26;;;;;;;13.73;8.93;;;15.80;99.90;;;;;;5062295;28;20219;-73
2022/10/18 01:42:20;;;;;;;16.17;10.18;;;15.80;99.90;;;;;;5054029;28;20223;-74
2022/10/18 01:45:10;;;;;;;13.05;8.98;;;15.80;99.90;;;;;;5073464;28;20262;-75
2022/10/18 01:48:02;;;;;;;15.05;10.00;;;15.80;99.90;;;;;;5077655;28;20231;-74
2022/10/18 01:50:51;;;;;;;14.40;9.20;;;15.70;99.90;;;;;;5061134;28;20695;-73
2022/10/18 01:53:40;;;;;;;12.10;8.98;;;15.80;99.90;;;;;;5078768;28;20223;-74
2022/10/18 01:56:41;;;;;;;13.50;9.02;;;15.80;99.90;;;;;;5072928;28;20212;-74
2022/10/18 01:59:39;;;;;;;11.63;9.10;;;15.70;99.90;;;;;;5057739;28;20241;-74
2022/10/18 02:02:40;;;;;;;11.43;8.73;;;15.70;99.90;;;;;;5074547;28;20219;-75
2022/10/18 02:05:40;;;;;;;13.15;9.35;;;15.70;99.90;;;;;;5067228;28;21701;-73
2022/10/18 02:08:33;;;;;;;15.55;9.32;;;15.70;99.90;;;;;;5063138;28;20360;-73
2022/10/18 02:11:22;;;;;;;15.05;9.57;;;15.70;99.90;;;;;;5064577;28;20232;-75
2022/10/18 02:14:14;;;;;;;13.18;9.13;;;15.70;99.90;;;;;;5075940;28;20219;-74
2022/10/18 02:17:08;;;;;;;16.38;9.32;;;15.60;99.90;;;;;;5073202;28;20311;-74
2022/10/18 02:19:57;;;;;;;14.95;9.35;;;15.60;99.90;;;;;;5073963;28;20622;-75
2022/10/18 02:22:48;;;;;;;12.93;9.05;;;15.60;99.90;;;;;;5080635;28;20255;-74
2022/10/18 02:25:39;;;;;;;14.07;8.85;;;15.60;99.90;;;;;;5074455;28;20271;-74
2022/10/18 02:28:27;;;;;;;15.13;9.40;;;15.60;99.90;;;;;;5073972;28;20224;-74
2022/10/18 02:31:21;;;;;;;17.45;10.02;;;15.60;99.90;;;;;;5073928;28;20882;-75
2022/10/18 02:34:19;;;;;;;12.73;8.57;;;15.60;99.90;;;;;;5077570;28;20215;-74
2022/10/18 02:37:10;;;;;;;12.68;9.60;;;15.60;99.90;;;;;;5075334;28;20224;-76
2022/10/18 02:40:01;;;;;;;14.43;9.23;;;15.50;99.90;;;;;;5073694;28;20223;-75
2022/10/18 02:42:54;;;;;;;11.77;8.82;;;15.50;99.90;;;;;;5071564;28;20215;-74
2022/10/18 02:45:43;;;;;;;11.68;8.40;;;15.50;99.90;;;;;;5076835;28;20224;-75
2022/10/18 02:48:32;;;;;;;11.48;9.15;;;15.50;99.90;;;;;;5076269;28;20211;-76
2022/10/18 02:51:21;;;;;;;10.88;9.05;;;15.40;99.90;;;;;;5069844;28;20216;-74
2022/10/18 02:54:09;;;;;;;16.08;9.30;;;15.50;99.90;;;;;;5073295;28;20702;-74
2022/10/18 02:56:59;;;;;;;11.40;8.95;;;15.40;99.90;;;;;;5057820;28;20782;-74
2022/10/18 02:59:48;;;;;;;12.98;8.55;;;15.40;99.90;;;;;;5067876;28;20266;-75
2022/10/18 03:02:37;;;;;;;11.57;8.95;;;15.30;99.90;;;;;;5069118;28;20235;-75
2022/10/18 03:05:26;;;;;;;12.57;9.10;;;15.40;99.90;;;;;;5075690;28;20227;-74
2022/10/18 03:08:14;;;;;;;12.95;9.07;;;15.30;99.90;;;;;;5077682;28;20224;-74
2022/10/18 03:11:03;;;;;;;12.63;9.52;;;15.20;99.90;;;;;;5071106;28;20246;-75
2022/10/18 03:13:53;;;;;;;15.25;8.77;;;15.20;99.90;;;;;;5074173;28;20239;-75
2022/10/18 03:16:42;;;;;;;14.40;8.70;;;15.30;99.90;;;;;;5072954;28;20267;-77
2022/10/18 03:19:30;;;;;;;13.57;9.13;;;15.30;99.90;;;;;;5069974;28;20216;-77
2022/10/18 03:22:19;;;;;;;10.65;7.90;;;15.30;99.90;;;;;;5056208;28;20230;-76
2022/10/18 03:25:08;;;;;;;12.00;9.10;;;15.20;99.90;;;;;;5076021;28;20208;-76
2022/10/18 03:27:57;;;;;;;13.35;9.45;;;15.20;99.90;;;;;;5078638;28;20238;-76
2022/10/18 03:30:47;;;;;;;10.80;8.52;;;15.30;99.90;;;;;;5060588;28;20726;-77
2022/10/18 03:33:35;;;;;;;14.15;8.40;;;15.30;99.90;;;;;;5076720;28;20219;-77
2022/10/18 03:36:24;;;;;;;11.65;9.48;;;15.20;99.90;;;;;;5076806;28;20228;-74
2022/10/18 03:39:13;;;;;;;11.65;8.60;;;15.10;99.90;;;;;;5067288;28;20862;-75
2022/10/18 03:42:02;;;;;;;12.40;8.40;;;15.10;99.90;;;;;;5057588;28;20227;-77
2022/10/18 03:44:50;;;;;;;12.70;9.02;;;15.10;99.90;;;;;;5081774;28;20310;-75
2022/10/18 03:47:40;;;;;;;12.48;8.07;;;15.20;99.90;;;;;;5061955;28;20213;-75
2022/10/18 03:50:29;;;;;;;13.15;8.25;;;15.20;99.90;;;;;;5074840;28;20246;-77
2022/10/18 03:53:18;;;;;;;13.18;7.97;;;15.20;99.90;;;;;;5072632;28;20230;-77
2022/10/18 03:56:07;;;;;;;11.55;8.65;;;15.20;99.90;;;;;;5069954;28;20595;-75
2022/10/18 03:58:56;;;;;;;10.27;7.78;;;15.10;99.90;;;;;;5060687;28;20212;-75
2022/10/18 04:01:45;;;;;;;13.45;8.27;;;15.10;99.90;;;;;;5064062;28;20215;-75
2022/10/18 04:04:35;;;;;;;10.68;8.35;;;15.10;99.90;;;;;;5061962;28;20207;-73
2022/10/18 04:07:24;;;;;;;14.57;8.43;;;15.20;99.90;;;;;;5076845;28;20272;-73
2022/10/18 04:10:13;;;;;;;17.60;8.95;;;15.20;99.90;;;;;;5071722;28;20251;-75
2022/10/18 04:13:01;;;;;;;16.42;8.80;;;15.10;99.90;;;;;;5065113;28;20603;-75
2022/10/18 04:15:50;;;;;;;12.90;8.63;;;15.10;99.90;;;;;;5061106;28;20616;-76
2022/10/18 04:18:40;;;;;;;13.50;8.68;;;15.10;99.90;;;;;;5069649;28;20223;-77
2022/10/18 04:21:30;;;;;;;13.43;8.15;;;15.20;99.90;;;;;;5069957;28;20231;-76
2022/10/18 04:24:19;;;;;;;11.52;8.00;;;15.10;99.90;;;;;;5070348;28;20227;-76
2022/10/18 04:27:08;;;;;;;11.25;8.50;;;15.10;99.90;;;;;;5059061;28;20606;-74
2022/10/18 04:29:57;;;;;;;11.95;8.13;;;15.10;99.90;;;;;;5076699;28;20228;-74
2022/10/18 04:32:46;;;;;;;11.63;7.60;;;15.10;99.90;;;;;;5072111;28;20587;-74
2022/10/18 04:35:34;;;;;;;12.98;8.50;;;15.10;99.90;;;;;;5057901;28;20220;-73
2022/10/18 04:38:25;;;;;;;10.88;8.15;;;15.10;99.90;;;;;;5071869;28;20312;-73
2022/10/18 04:41:13;;;;;;;10.57;7.60;;;15.10;99.90;;;;;;5061067;28;20219;-73
2022/10/18 04:44:02;;;;;;;11.90;8.25;;;15.10;99.90;;;;;;5073668;28;20709;-72
2022/10/18 04:46:50;;;;;;;14.05;8.77;;;15.10;99.90;;;;;;5068085;28;20756;-73
2022/10/18 04:49:39;;;;;;;11.80;8.68;;;15.10;99.90;;;;;;5074955;28;20230;-73
2022/10/18 04:52:28;;;;;;;12.05;8.40;;;15.10;99.90;;;;;;5063963;28;20227;-73
2022/10/18 04:55:18;;;;;;;15.55;8.40;;;15.10;99.90;;;;;;5070849;28;20725;-73
2022/10/18 04:58:07;;;;;;;12.80;8.70;;;15.10;99.90;;;;;;5072469;28;20224;-77
2022/10/18 05:00:55;;;;;;;12.63;8.75;;;15.20;99.90;;;;;;5074374;28;20718;-75
2022/10/18 05:03:44;;;;;;;11.57;8.20;;;15.20;99.90;;;;;;5072086;28;20221;-75
2022/10/18 05:06:33;;;;;;;13.32;8.30;;;15.10;99.90;;;;;;5073999;28;20220;-75
2022/10/18 05:09:23;;;;;;;14.18;9.30;;;15.20;99.90;;;;;;5057601;28;20211;-76
2022/10/18 05:12:13;;;;;;;16.83;10.00;;;15.20;99.90;;;;;;5031946;28;20626;-75
2022/10/18 05:15:06;;;;;;;15.70;9.65;;;15.20;99.90;;;;;;5033542;28;20872;-77
2022/10/18 05:17:55;;;;;;;15.15;8.90;;;15.20;99.90;;;;;;5042008;28;20596;-77
2022/10/18 05:20:44;;;;;;;13.43;8.57;;;15.20;99.90;;;;;;5029714;28;20412;-78
2022/10/18 05:23:32;;;;;;;16.35;8.43;;;15.20;99.90;;;;;;5046981;28;20296;-78
2022/10/18 05:26:21;;;;;;;20.10;8.60;;;15.20;99.90;;;;;;5070635;28;20225;-78
2022/10/18 05:29:11;;;;;;;16.48;8.38;;;15.20;99.90;;;;;;5059448;28;20235;-76
2022/10/18 05:32:00;;;;;;;15.57;8.60;;;15.20;99.90;;;;;;5066333;28;20362;-75
2022/10/18 05:34:49;;;;;;;15.23;8.70;;;15.20;99.90;;;;;;5082067;28;20232;-76
2022/10/18 05:37:37;;;;;;;14.77;8.90;;;15.20;99.90;;;;;;5066956;28;20240;-77
2022/10/18 05:40:26;;;;;;;19.00;9.18;;;15.30;99.90;;;;;;5059447;28;20231;-77
2022/10/18 05:43:16;;;;;;;10.90;7.72;;;15.30;99.90;;;;;;5056481;28;20819;-76
2022/10/18 05:46:07;;;;;;;13.30;8.30;;;15.30;99.90;;;;;;5071212;28;20234;-75
2022/10/18 05:49:02;;;;;;;13.48;8.43;;;15.30;99.90;;;;;;5068403;28;20359;-76
2022/10/18 05:51:53;;;;;;;13.07;8.43;;;15.40;99.90;;;;;;5074251;28;20231;-75
2022/10/18 05:54:42;;;;;;;16.48;8.32;;;15.50;99.90;;;;;;5064189;28;20246;-76
2022/10/18 05:57:31;;;;;;;21.95;9.68;;;15.40;99.90;;;;;;5053853;28;20227;-75
2022/10/18 06:00:20;;;;;;;15.82;9.18;;;15.50;99.90;;;;;;5073074;28;20219;-76
2022/10/18 06:03:10;;;;;;;23.25;9.55;;;15.50;99.90;;;;;;5062512;28;20231;-76
2022/10/18 06:06:00;;;;;;;18.88;8.40;;;15.50;99.90;;;;;;5074412;28;20280;-77
2022/10/18 06:08:49;;;;;;;18.67;8.90;;;15.50;99.90;;;;;;5058040;28;20239;-76
2022/10/18 06:11:38;;;;;;;14.23;8.85;;;15.60;99.90;;;;;;5069011;28;20223;-80
2022/10/18 06:14:27;;;;;;;14.38;8.68;;;15.60;99.90;;;;;;5081038;28;20706;-75
2022/10/18 06:17:16;;;;;;;15.40;9.10;;;15.70;99.90;;;;;;5074920;28;20219;-77
2022/10/18 06:20:07;;;;;;;21.20;9.38;;;15.70;99.90;;;;;;5075362;28;20243;-76
2022/10/18 06:22:56;;;;;;;16.50;9.40;;;15.80;99.90;;;;;;5076040;28;20232;-76
2022/10/18 06:25:44;;;;;;;18.30;9.13;;;15.80;99.90;;;;;;5081667;28;20587;-75
2022/10/18 06:28:34;;;;;;;23.52;9.25;;;15.80;99.90;;;;;;5072288;28;20219;-74
2022/10/18 06:31:23;;;;;;;14.40;8.70;;;15.80;99.90;;;;;;5063332;28;20894;-76
2022/10/18 06:34:12;;;;;;;10.27;8.35;;;15.90;99.90;;;;;;5078531;28;20698;-76
2022/10/18 06:37:02;;;;;;;15.30;9.30;;;15.90;99.90;;;;;;5059958;28;20231;-76
2022/10/18 06:39:51;;;;;;;19.02;9.10;;;16.00;99.90;;;;;;5074275;28;20703;-76
2022/10/18 06:42:40;;;;;;;15.23;8.57;;;16.00;99.90;;;;;;5062417;28;20219;-73
2022/10/18 06:45:28;;;;;;;11.68;8.45;;;16.10;99.90;;;;;;5057384;28;20216;-75
2022/10/18 06:48:18;;;;;;;17.52;9.60;;;16.10;99.90;;;;;;5065901;28;20229;-76
2022/10/18 06:51:08;;;;;;;17.02;8.98;;;16.10;99.90;;;;;;5065555;28;20226;-75
2022/10/18 06:53:58;;;;;;;16.23;8.98;;;16.10;99.90;;;;;;5075106;28;20262;-75
2022/10/18 06:57:05;;;;;;;13.82;9.05;;;16.20;99.90;;;;;;5058082;28;20243;-75
2022/10/18 06:59:54;;;;;;;14.98;9.00;;;16.20;99.90;;;;;;5075167;28;20224;-75
2022/10/18 07:02:43;;;;;;;12.38;9.05;;;16.20;99.90;;;;;;5068774;28;20244;-75
2022/10/18 07:05:32;;;;;;;18.35;8.82;;;16.30;99.90;;;;;;5077884;28;20725;-75
2022/10/18 07:08:26;;;;;;;17.88;9.13;;;16.30;99.90;;;;;;5061328;28;20220;-73
2022/10/18 07:11:19;;;;;;;14.07;8.88;;;16.40;99.90;;;;;;5073383;28;20232;-77
2022/10/18 07:14:08;;;;;;;17.38;9.18;;;16.40;99.90;;;;;;5073728;28;20220;-75
2022/10/18 07:17:02;;;;;;;12.63;8.68;;;16.50;99.90;;;;;;5083441;28;20236;-76
2022/10/18 07:19:51;;;;;;;14.68;9.00;;;16.50;99.90;;;;;;5060089;28;20321;-73
2022/10/18 07:22:40;;;;;;;20.73;9.73;;;16.50;99.90;;;;;;5061720;28;20231;-74
2022/10/18 07:25:28;;;;;;;16.08;9.50;;;16.50;99.90;;;;;;5061680;28;20224;-76
2022/10/18 07:28:19;;;;;;;19.90;10.18;;;16.50;99.90;;;;;;5065584;28;20216;-75
2022/10/18 07:31:09;;;;;;;14.88;9.82;;;16.60;99.90;;;;;;5077058;28;20299;-74
2022/10/18 07:33:57;;;;;;;13.98;9.10;;;16.60;99.90;;;;;;5063798;28;20600;-75
2022/10/18 07:36:46;;;;;;;18.25;8.95;;;16.60;99.90;;;;;;5070088;28;20223;-76
2022/10/18 07:39:35;;;;;;;15.00;9.38;;;16.60;99.90;;;;;;5061002;28;20212;-74
2022/10/18 07:42:24;;;;;;;20.27;9.38;;;16.60;99.90;;;;;;5076298;28;20294;-74
2022/10/18 07:45:14;;;;;;;13.73;10.15;;;16.70;99.90;;;;;;5073820;28;20224;-74
2022/10/18 07:48:02;;;;;;;14.55;9.15;;;16.70;99.90;;;;;;5071520;28;20232;-76
2022/10/18 07:50:51;;;;;;;13.65;9.30;;;16.80;99.90;;;;;;5070697;28;20227;-74
2022/10/18 07:53:40;;;;;;;14.02;10.07;;;16.80;99.90;;;;;;5071648;28;20246;-72
2022/10/18 07:56:29;;;;;;;18.73;9.65;;;16.90;99.90;;;;;;5061118;28;20211;-74
2022/10/18 07:59:17;;;;;;;15.30;10.63;;;17.00;99.90;;;;;;5064219;28;20630;-75
2022/10/18 08:02:07;;;;;;;20.10;10.20;;;17.00;99.90;;;;;;5073792;28;20701;-76
2022/10/18 08:04:56;;;;;;;17.02;10.40;;;17.00;99.90;;;;;;5073763;28;20250;-75
2022/10/18 08:07:45;;;;;;;16.95;10.15;;;17.00;99.90;;;;;;5063056;28;20213;-75
2022/10/18 08:10:35;;;;;;;21.35;10.75;;;17.10;99.90;;;;;;5072507;28;20343;-75
2022/10/18 08:13:24;;;;;;;17.23;10.45;;;17.00;99.90;;;;;;5075304;28;20275;-76
2022/10/18 08:16:15;;;;;;;21.30;10.70;;;17.00;99.90;;;;;;5066659;28;20231;-77
2022/10/18 08:19:05;;;;;;;17.98;10.55;;;17.00;99.90;;;;;;5076153;28;20305;-78
2022/10/18 08:21:53;;;;;;;21.77;11.27;;;17.00;99.90;;;;;;5065413;28;20243;-75
2022/10/18 08:24:42;;;;;;;14.07;10.65;;;17.00;99.90;;;;;;5076457;28;20986;-75
2022/10/18 08:27:31;;;;;;;17.02;10.75;;;16.90;99.90;;;;;;5077387;28;20737;-75
2022/10/18 08:30:22;;;;;;;16.98;10.77;;;16.90;99.90;;;;;;5073481;28;20552;-75
2022/10/18 08:33:10;;;;;;;18.20;11.52;;;16.90;99.90;;;;;;5065011;28;20757;-76
2022/10/18 08:36:04;;;;;;;14.90;10.93;;;16.90;99.90;;;;;;5062611;28;20246;-76
2022/10/18 08:38:53;;;;;;;15.18;11.82;;;17.00;99.90;;;;;;5077172;28;20713;-76
2022/10/18 08:42:09;;;;;;;18.13;11.80;;;17.20;99.90;;;;;;5071575;28;20231;-76
2022/10/18 08:44:58;;;;;;;15.68;11.82;;;17.40;99.90;;;;;;5077025;28;20906;-77
2022/10/18 08:48:01;;;;;;;20.63;12.20;;;17.50;99.90;;;;;;5058855;28;20241;-77
2022/10/18 08:50:51;;;;;;;19.48;12.48;;;17.50;99.90;;;;;;5073919;28;20365;-76
2022/10/18 08:53:51;;;;;;;17.10;12.00;;;17.50;99.90;;;;;;5074571;28;20717;-76
2022/10/18 08:56:45;;;;;;;20.55;11.90;;;17.50;99.90;;;;;;5074315;28;20579;-76
2022/10/18 08:59:39;;;;;;;16.10;11.68;;;17.60;99.90;;;;;;5075381;28;20235;-75
2022/10/18 09:02:41;;;;;;;16.92;11.38;;;17.60;99.90;;;;;;5058987;28;20812;-76
2022/10/18 09:05:40;;;;;;;21.85;12.52;;;17.70;99.90;;;;;;5076926;28;20226;-75
2022/10/18 09:09:01;;;;;;;17.88;12.45;;;17.70;99.90;;;;;;5075739;28;20339;-76
2022/10/18 09:12:00;;;;;;;19.80;12.88;;;17.70;99.90;;;;;;5073628;28;20232;-76
2022/10/18 09:15:06;;;;;;;17.65;12.32;;;17.80;99.90;;;;;;5077065;28;20315;-76
2022/10/18 09:18:09;;;;;;;16.90;12.07;;;17.90;99.90;;;;;;5080460;28;20784;-75
2022/10/18 09:20:59;;;;;;;17.00;11.68;;;18.00;99.90;;;;;;5074887;28;20219;-75
2022/10/18 09:23:56;;;;;;;18.30;13.27;;;18.10;99.90;;;;;;5073454;28;20559;-75
2022/10/18 09:26:48;;;;;;;19.52;12.63;;;18.20;99.90;;;;;;5066559;28;20234;-77
2022/10/18 09:29:51;;;;;;;20.17;13.85;;;18.20;99.90;;;;;;5061512;28;20214;-77
2022/10/18 09:32:50;;;;;;;17.42;12.88;;;18.20;99.90;;;;;;5061246;28;20227;-73
2022/10/18 09:35:45;;;;;;;17.05;12.68;;;18.30;99.90;;;;;;5079279;28;20543;-73
2022/10/18 09:38:41;;;;;;;22.65;13.68;;;18.30;99.90;;;;;;5077120;28;20593;-75
2022/10/18 09:41:37;;;;;;;16.58;12.38;;;18.30;99.90;;;;;;5073530;28;20238;-74
2022/10/18 09:44:30;;;;;;;20.00;13.57;;;18.30;99.90;;;;;;5074985;28;20220;-76
2022/10/18 09:47:23;;;;;;;21.95;15.25;;;18.20;99.90;;;;;;5073018;28;20250;-74
2022/10/18 09:50:21;;;;;;;24.95;14.90;;;18.20;99.90;;;;;;5074705;28;20295;-74
2022/10/18 09:53:21;;;;;;;17.60;14.15;;;18.20;99.90;;;;;;5072737;28;20227;-73
2022/10/18 09:56:15;;;;;;;17.45;13.52;;;18.20;99.90;;;;;;5072962;28;20219;-75
2022/10/18 09:59:04;;;;;;;18.70;13.85;;;18.20;99.90;;;;;;5076465;28;20658;-75
2022/10/18 10:01:55;;;;;;;18.80;14.00;;;18.20;99.90;;;;;;5075452;28;20235;-75
2022/10/18 10:04:44;;;;;;;21.85;15.38;;;18.20;99.90;;;;;;5075857;28;20955;-74
2022/10/18 10:07:41;;;;;;;23.85;14.30;;;18.20;99.90;;;;;;5057090;28;20238;-73
2022/10/18 10:10:31;;;;;;;21.25;15.32;;;18.20;99.90;;;;;;5074107;28;20219;-75
2022/10/18 10:13:26;;;;;;;22.60;14.80;;;18.20;99.90;;;;;;5067668;28;20219;-75
2022/10/18 10:16:15;;;;;;;24.70;15.00;;;18.20;99.90;;;;;;5066375;28;20940;-72
2022/10/18 10:19:05;;;;;;;24.30;15.80;;;18.40;99.90;;;;;;5064939;28;20230;-73
2022/10/18 10:21:58;;;;;;;22.02;16.10;;;18.70;99.90;;;;;;5060574;28;20661;-76
2022/10/18 10:24:49;;;;;;;22.92;15.80;;;19.00;99.90;;;;;;5078345;28;20246;-75
2022/10/18 10:27:43;;;;;;;26.65;16.38;;;19.10;99.90;;;;;;5071898;28;20230;-75
2022/10/18 10:30:33;;;;;;;24.08;16.17;;;19.10;99.90;;;;;;5075294;28;20211;-78
2022/10/18 10:33:32;;;;;;;28.80;15.95;;;19.00;99.90;;;;;;5073738;28;20220;-77
2022/10/18 10:36:23;;;;;;;22.85;17.73;;;19.00;99.90;;;;;;5092643;28;20207;-78
2022/10/18 10:39:17;;;;;;;20.30;15.68;;;19.00;99.90;;;;;;5070841;28;20225;-77
2022/10/18 10:42:05;;;;;;;22.95;16.70;;;19.10;99.90;;;;;;5076736;28;20222;-75
2022/10/18 10:45:01;;;;;;;25.80;16.30;;;19.20;99.90;;;;;;5066766;28;20231;-75
2022/10/18 10:47:52;;;;;;;28.23;16.83;;;19.30;99.90;;;;;;5073416;28;20216;-77
2022/10/18 10:50:55;;;;;;;23.70;15.48;;;19.40;99.90;;;;;;5082407;28;20220;-78
2022/10/18 10:53:51;;;;;;;20.92;15.57;;;19.60;99.90;;;;;;5059037;28;20215;-77
2022/10/18 10:56:54;;;;;;;21.98;16.95;;;19.60;99.90;;;;;;5073123;28;20212;-78
2022/10/18 10:59:45;;;;;;;22.02;15.75;;;19.70;99.90;;;;;;5061916;28;21533;-78
2022/10/18 11:02:36;;;;;;;27.48;17.15;;;19.70;99.90;;;;;;5073503;28;20512;-76
2022/10/18 11:05:28;;;;;;;22.70;16.02;;;19.70;99.90;;;;;;5062128;28;20228;-79
2022/10/18 11:08:21;;;;;;;25.23;15.90;;;19.60;99.90;;;;;;5076709;28;20342;-78
2022/10/18 11:11:19;;;;;;;23.70;16.92;;;19.60;99.90;;;;;;5073219;28;20224;-78
2022/10/18 11:14:21;;;;;;;22.50;15.88;;;19.50;99.90;;;;;;5076756;28;20219;-78
2022/10/18 11:17:23;;;;;;;24.92;15.75;;;19.50;99.90;;;;;;5061939;28;20215;-77
2022/10/18 11:20:23;;;;;;;26.77;15.77;;;19.60;99.90;;;;;;5069792;28;20227;-77
2022/10/18 11:23:13;;;;;;;24.13;16.48;;;19.60;99.90;;;;;;5072259;28;20224;-75
2022/10/18 11:26:33;;;;;;;26.50;16.42;;;19.60;99.90;;;;;;5071477;28;20234;-74
2022/10/18 11:29:43;;;;;;;29.30;15.95;;;19.70;99.90;;;;;;5077771;28;20220;-76
2022/10/18 11:32:41;;;;;;;24.48;16.50;;;19.70;99.90;;;;;;5077384;28;20254;-76
2022/10/18 11:35:39;;;;;;;22.35;16.25;;;19.60;99.90;;;;;;5070596;28;20738;-77
2022/10/18 11:38:33;;;;;;;23.77;16.42;;;19.60;99.90;;;;;;5053064;28;20230;-78
2022/10/18 11:41:38;;;;;;;32.40;18.70;;;19.60;99.90;;;;;;5072204;28;20226;-80
2022/10/18 11:44:35;;;;;;;28.40;18.02;;;19.50;99.90;;;;;;5070138;28;20242;-77
2022/10/18 11:47:33;;;;;;;29.02;18.65;;;19.50;99.90;;;;;;5059118;28;20770;-77
2022/10/18 11:50:30;;;;;;;28.83;19.65;;;19.60;99.90;;;;;;5059571;28;20670;-79
2022/10/18 11:53:28;;;;;;;27.65;18.70;;;19.60;99.90;;;;;;5053216;28;20212;-76
2022/10/18 11:56:25;;;;;;;29.40;18.25;;;19.60;99.90;;;;;;5056878;28;20243;-75
2022/10/18 11:59:28;;;;;;;28.10;18.33;;;19.70;99.90;;;;;;5080760;28;20219;-75
2022/10/18 12:02:51;;;;;;;24.73;17.73;;;19.80;99.90;;;;;;5066410;28;20928;-76
2022/10/18 12:05:42;;;;;;;27.23;17.75;;;19.80;99.90;;;;;;5056452;28;20301;-77
2022/10/18 12:08:36;;;;;;;24.63;17.33;;;19.70;99.90;;;;;;5075735;28;20226;-76
2022/10/18 12:11:29;;;;;;;24.83;17.45;;;19.70;99.90;;;;;;5060511;28;20227;-79
2022/10/18 12:14:25;;;;;;;24.52;18.17;;;19.80;99.90;;;;;;5057335;28;20218;-78
2022/10/18 12:17:21;;;;;;;25.15;17.73;;;19.90;99.90;;;;;;5066139;28;20215;-76
2022/10/18 12:20:33;;;;;;;26.42;20.17;;;19.90;99.90;;;;;;5068740;28;20763;-78
2022/10/18 12:23:32;;;;;;;24.67;18.02;;;20.00;99.90;;;;;;5084297;28;20239;-79
2022/10/18 12:26:21;;;;;;;25.52;17.63;;;20.00;99.90;;;;;;5060812;28;20238;-81
2022/10/18 12:29:20;;;;;;;27.35;18.02;;;20.10;99.90;;;;;;5073628;28;20217;-79
2022/10/18 12:32:14;;;;;;;22.65;17.52;;;20.10;99.90;;;;;;5058795;28;20228;-78
2022/10/18 12:35:06;;;;;;;25.23;18.08;;;20.10;99.90;;;;;;5072767;28;20232;-80
2022/10/18 12:38:16;;;;;;;24.08;18.50;;;20.00;99.90;;;;;;5076917;28;20215;-78
2022/10/18 12:41:05;;;;;;;22.65;18.27;;;20.00;99.90;;;;;;5064174;28;20345;-74
2022/10/18 12:44:01;;;;;;;25.45;17.45;;;20.00;99.90;;;;;;5070939;28;20219;-76
2022/10/18 12:46:52;;;;;;;23.73;17.88;;;19.90;99.90;;;;;;5065224;28;20216;-76
2022/10/18 12:49:42;;;;;;;23.08;17.98;;;19.90;99.90;;;;;;5075940;28;20250;-76
2022/10/18 12:52:35;;;;;;;25.98;18.15;;;19.90;99.90;;;;;;5081974;28;20329;-77
2022/10/18 12:55:30;;;;;;;25.80;18.20;;;19.90;99.90;;;;;;5072144;28;20235;-75
2022/10/18 12:58:29;;;;;;;23.38;18.20;;;19.90;99.90;;;;;;5066753;28;20223;-75
2022/10/18 13:01:17;;;;;;;26.83;19.08;;;19.80;99.90;;;;;;5072960;28;21059;-76
2022/10/18 13:04:33;;;;;;;29.58;17.48;;;19.80;99.90;;;;;;5078421;28;20389;-76
2022/10/18 13:07:39;;;;;;;26.90;18.63;;;19.80;99.90;;;;;;5080450;28;20840;-75
2022/10/18 13:10:37;;;;;;;29.50;18.55;;;19.70;99.90;;;;;;5074184;28;20219;-76
2022/10/18 13:13:54;;;;;;;25.60;18.70;;;19.60;99.90;;;;;;5083279;28;20228;-76
2022/10/18 13:16:47;;;;;;;31.95;19.08;;;19.60;99.90;;;;;;5043628;28;20245;-76
2022/10/18 13:19:46;;;;;;;25.15;18.42;;;19.50;99.90;;;;;;5063105;28;20223;-76
2022/10/18 13:23:03;;;;;;;25.48;18.25;;;19.50;99.90;;;;;;5060811;28;20284;-75
2022/10/18 13:25:58;;;;;;;28.13;18.88;;;19.50;99.90;;;;;;5059013;28;20227;-74
2022/10/18 13:28:57;;;;;;;27.15;19.30;;;19.50;99.90;;;;;;5065829;28;20230;-75
2022/10/18 13:31:51;;;;;;;25.95;18.75;;;19.50;99.90;;;;;;5065057;28;20247;-77
2022/10/18 13:34:40;;;;;;;25.17;20.05;;;19.50;99.90;;;;;;5071385;28;20216;-76
2022/10/18 13:37:30;;;;;;;22.88;18.45;;;19.40;99.90;;;;;;5072704;28;20223;-76
2022/10/18 13:40:26;;;;;;;24.98;18.20;;;19.40;99.90;;;;;;5079143;28;20220;-76
2022/10/18 13:43:47;;;;;;;27.38;19.30;;;19.30;99.90;;;;;;5059823;28;20227;-76
2022/10/18 13:47:19;;;;;;;23.17;18.52;;;19.30;99.90;;;;;;5065345;28;20223;-77
2022/10/18 13:50:40;;;;;;;25.80;18.65;;;19.30;99.90;;;;;;5075982;28;20236;-77
2022/10/18 13:53:40;;;;;;;30.00;18.80;;;19.30;99.90;;;;;;5066122;28;20231;-76
2022/10/18 13:56:46;;;;;;;28.20;20.35;;;19.30;99.90;;;;;;5082064;28;20223;-77
2022/10/18 14:00:02;;;;;;;31.40;19.83;;;19.30;99.90;;;;;;5061638;28;20212;-75
2022/10/18 14:03:24;;;;;;;26.05;19.63;;;19.30;99.90;;;;;;5079443;28;20235;-76
2022/10/18 14:06:35;;;;;;;28.02;18.63;;;19.30;99.90;;;;;;5076911;28;20211;-76
2022/10/18 14:09:26;;;;;;;27.85;18.83;;;19.30;99.90;;;;;;5059500;28;20216;-77
2022/10/18 14:12:41;;;;;;;29.60;18.58;;;19.30;99.90;;;;;;5079978;28;20316;-76
2022/10/18 14:15:34;;;;;;;30.65;19.02;;;19.30;99.90;;;;;;5074639;28;20223;-74
2022/10/18 14:18:29;;;;;;;32.63;22.23;;;19.30;99.90;;;;;;5076433;28;20220;-77
2022/10/18 14:21:25;;;;;;;27.25;19.33;;;19.30;99.90;;;;;;5060531;28;20224;-76
2022/10/18 14:24:22;;;;;;;26.75;19.83;;;19.20;99.90;;;;;;5061318;28;20227;-75
2022/10/18 14:27:12;;;;;;;28.45;19.42;;;19.20;99.90;;;;;;5075977;28;20231;-76
2022/10/18 14:30:15;;;;;;;28.63;20.10;;;19.20;99.90;;;;;;5076497;28;20303;-77
2022/10/18 14:33:04;;;;;;;26.95;19.27;;;19.20;99.90;;;;;;5075652;28;20308;-76
2022/10/18 14:36:00;;;;;;;26.60;20.70;;;19.20;99.90;;;;;;5060069;28;20234;-77
2022/10/18 14:38:51;;;;;;;28.50;19.95;;;19.20;99.90;;;;;;5072675;28;20223;-76
2022/10/18 14:41:49;;;;;;;32.42;20.90;;;19.20;99.90;;;;;;5069831;28;20729;-76
2022/10/18 14:44:38;;;;;;;33.83;20.63;;;19.20;99.90;;;;;;5074498;28;20713;-76